Time;durP1;ratioP1;P1;durP2;ratioP2;P2;SDS_P1;SDS_P2;PMS_P1;PMS_P2;Temp;Humidity;BMP_temperature;BMP_pressure;BME280_temperature;BME280_humidity;BME280_pressure;Samples;Min_cycle;Max_cycle;Signal;HPM_P1;HPM_P2
2021/11/27 00:01:14;;;;;;;2.61;2.33;;;;;;;19.07;49.69;97738.84;;;;-57
2021/11/27 00:04:14;;;;;;;2.52;2.21;;;;;;;19.06;49.76;97740.52;;;;-58
2021/11/27 00:07:14;;;;;;;2.43;2.23;;;;;;;19.04;49.74;97741.48;;;;-58
2021/11/27 00:10:15;;;;;;;2.52;2.27;;;;;;;19.03;49.80;97737.23;;;;-58
2021/11/27 00:13:14;;;;;;;2.39;2.19;;;;;;;19.00;49.79;97737.63;;;;-57
2021/11/27 00:16:14;;;;;;;2.38;2.18;;;;;;;18.98;49.82;97736.00;;;;-57
2021/11/27 00:19:14;;;;;;;2.29;2.09;;;;;;;18.96;49.75;97729.23;;;;-57
2021/11/27 00:22:14;;;;;;;2.39;2.19;;;;;;;18.96;49.83;97725.13;;;;-51
2021/11/27 00:25:14;;;;;;;2.36;2.16;;;;;;;18.94;49.81;97725.27;;;;-51
2021/11/27 00:28:14;;;;;;;2.20;2.00;;;;;;;18.93;49.83;97724.93;;;;-51
2021/11/27 00:31:14;;;;;;;2.41;2.17;;;;;;;18.91;49.80;97723.45;;;;-50
2021/11/27 00:34:16;;;;;;;2.35;2.15;;;;;;;18.90;49.81;97721.33;;;;-50
2021/11/27 00:37:14;;;;;;;2.19;1.99;;;;;;;18.88;49.85;97721.02;;;;-51
2021/11/27 00:40:14;;;;;;;2.35;2.03;;;;;;;18.86;49.88;97720.83;;;;-50
2021/11/27 00:43:14;;;;;;;2.35;2.15;;;;;;;18.85;49.88;97718.52;;;;-51
2021/11/27 00:46:14;;;;;;;1.93;1.80;;;;;;;18.84;49.86;97713.05;;;;-50
2021/11/27 00:49:15;;;;;;;2.20;2.00;;;;;;;18.83;49.90;97711.93;;;;-51
2021/11/27 00:52:14;;;;;;;2.21;2.01;;;;;;;18.82;49.99;97709.28;;;;-50
2021/11/27 00:55:14;;;;;;;2.18;1.98;;;;;;;18.81;49.96;97703.20;;;;-51
2021/11/27 00:58:14;;;;;;;2.18;1.98;;;;;;;18.78;49.96;97691.42;;;;-52
2021/11/27 01:01:14;;;;;;;2.40;2.16;;;;;;;18.77;49.99;97700.69;;;;-51
2021/11/27 01:04:14;;;;;;;2.28;1.96;;;;;;;18.75;49.93;97691.16;;;;-57
2021/11/27 01:07:14;;;;;;;2.27;2.07;;;;;;;18.74;50.01;97680.20;;;;-57
2021/11/27 01:10:14;;;;;;;2.24;2.04;;;;;;;18.73;49.98;97671.80;;;;-57
2021/11/27 01:13:14;;;;;;;2.23;2.03;;;;;;;18.71;50.03;97670.47;;;;-57
2021/11/27 01:16:14;;;;;;;2.49;2.03;;;;;;;18.69;50.10;97669.55;;;;-58
2021/11/27 01:19:14;;;;;;;2.17;1.97;;;;;;;18.68;50.04;97673.35;;;;-55
2021/11/27 01:22:14;;;;;;;2.10;1.90;;;;;;;18.68;50.09;97667.67;;;;-56
2021/11/27 01:25:14;;;;;;;2.20;2.00;;;;;;;18.65;50.02;97669.55;;;;-57
2021/11/27 01:28:15;;;;;;;2.10;1.90;;;;;;;18.64;50.11;97667.80;;;;-56
2021/11/27 01:31:14;;;;;;;2.03;1.83;;;;;;;18.62;50.12;97667.05;;;;-57
2021/11/27 01:34:14;;;;;;;2.49;2.03;;;;;;;18.62;50.21;97656.77;;;;-57
2021/11/27 01:37:14;;;;;;;2.14;1.94;;;;;;;18.60;50.18;97650.26;;;;-54
2021/11/27 01:40:14;;;;;;;2.17;1.97;;;;;;;18.59;50.22;97644.20;;;;-56
2021/11/27 01:43:14;;;;;;;1.95;1.83;;;;;;;18.57;50.14;97643.15;;;;-51
2021/11/27 01:46:14;;;;;;;2.15;1.95;;;;;;;18.57;50.20;97650.77;;;;-50
2021/11/27 01:49:14;;;;;;;2.20;2.00;;;;;;;18.56;50.23;97655.61;;;;-50
2021/11/27 01:52:14;;;;;;;3.35;1.75;;;;;;;18.54;50.18;97652.97;;;;-51
2021/11/27 01:55:14;;;;;;;2.22;2.02;;;;;;;18.53;50.22;97644.67;;;;-51
2021/11/27 01:58:14;;;;;;;1.81;1.70;;;;;;;18.52;50.24;97645.28;;;;-51
2021/11/27 02:01:14;;;;;;;1.97;1.75;;;;;;;18.50;50.22;97644.77;;;;-50
2021/11/27 02:04:14;;;;;;;2.04;1.89;;;;;;;18.50;50.33;97644.31;;;;-51
2021/11/27 02:07:14;;;;;;;2.08;1.90;;;;;;;18.47;50.22;97637.44;;;;-57
2021/11/27 02:10:14;;;;;;;1.87;1.77;;;;;;;18.47;50.28;97642.11;;;;-57
2021/11/27 02:13:14;;;;;;;1.91;1.80;;;;;;;18.46;50.23;97635.81;;;;-57
2021/11/27 02:16:14;;;;;;;2.04;1.85;;;;;;;18.45;50.29;97632.97;;;;-57
2021/11/27 02:19:14;;;;;;;1.87;1.77;;;;;;;18.44;50.32;97632.31;;;;-58
2021/11/27 02:22:15;;;;;;;2.18;1.81;;;;;;;18.44;50.33;97630.81;;;;-57
2021/11/27 02:25:14;;;;;;;1.87;1.77;;;;;;;18.43;50.32;97631.09;;;;-51
2021/11/27 02:28:14;;;;;;;2.02;1.79;;;;;;;18.41;50.36;97626.85;;;;-52
2021/11/27 02:31:14;;;;;;;1.78;1.65;;;;;;;18.40;50.31;97618.86;;;;-51
2021/11/27 02:34:14;;;;;;;1.69;1.59;;;;;;;18.40;50.41;97613.60;;;;-51
2021/11/27 02:37:14;;;;;;;1.71;1.61;;;;;;;18.38;50.39;97611.12;;;;-51
2021/11/27 02:40:14;;;;;;;1.85;1.61;;;;;;;18.37;50.34;97617.98;;;;-52
2021/11/27 02:43:14;;;;;;;2.61;1.75;;;;;;;18.35;50.29;97608.74;;;;-51
2021/11/27 02:46:14;;;;;;;1.79;1.69;;;;;;;18.35;50.42;97607.26;;;;-52
2021/11/27 02:49:14;;;;;;;1.70;1.60;;;;;;;18.34;50.29;97604.71;;;;-57
2021/11/27 02:52:14;;;;;;;1.72;1.62;;;;;;;18.33;50.39;97601.09;;;;-57
2021/11/27 02:55:14;;;;;;;1.75;1.65;;;;;;;18.32;50.37;97600.02;;;;-57
2021/11/27 02:58:14;;;;;;;1.87;1.71;;;;;;;18.31;50.39;97596.89;;;;-57
2021/11/27 03:01:14;;;;;;;1.79;1.69;;;;;;;18.30;50.45;97604.37;;;;-56
2021/11/27 03:04:14;;;;;;;2.23;1.80;;;;;;;18.29;50.46;97600.50;;;;-57
2021/11/27 03:07:14;;;;;;;1.78;1.67;;;;;;;18.27;50.43;97601.94;;;;-57
2021/11/27 03:10:14;;;;;;;2.27;1.61;;;;;;;18.26;50.39;97599.87;;;;-56
2021/11/27 03:13:14;;;;;;;1.75;1.59;;;;;;;18.25;50.40;97601.94;;;;-57
2021/11/27 03:16:15;;;;;;;1.73;1.60;;;;;;;18.25;50.46;97594.99;;;;-51
2021/11/27 03:19:14;;;;;;;1.73;1.63;;;;;;;18.25;50.48;97598.72;;;;-52
2021/11/27 03:22:14;;;;;;;1.77;1.67;;;;;;;18.24;50.44;97604.41;;;;-51
2021/11/27 03:25:14;;;;;;;1.87;1.77;;;;;;;18.23;50.47;97600.22;;;;-51
2021/11/27 03:28:14;;;;;;;1.80;1.70;;;;;;;18.22;50.51;97595.56;;;;-51
2021/11/27 03:31:14;;;;;;;1.75;1.65;;;;;;;18.22;50.46;97597.19;;;;-52
2021/11/27 03:34:14;;;;;;;1.82;1.72;;;;;;;18.20;50.41;97596.84;;;;-52
2021/11/27 03:37:14;;;;;;;1.69;1.59;;;;;;;18.19;50.46;97600.44;;;;-52
2021/11/27 03:40:14;;;;;;;1.85;1.70;;;;;;;18.18;50.51;97596.69;;;;-52
2021/11/27 03:43:14;;;;;;;1.70;1.60;;;;;;;18.17;50.49;97594.34;;;;-51
2021/11/27 03:46:14;;;;;;;1.85;1.69;;;;;;;18.17;50.53;97598.66;;;;-50
2021/11/27 03:49:14;;;;;;;1.82;1.72;;;;;;;18.15;50.55;97592.70;;;;-51
2021/11/27 03:52:14;;;;;;;1.91;1.63;;;;;;;18.15;50.53;97594.00;;;;-51
2021/11/27 03:55:14;;;;;;;1.69;1.59;;;;;;;18.14;50.50;97591.38;;;;-50
2021/11/27 03:58:14;;;;;;;1.55;1.45;;;;;;;18.14;50.54;97593.42;;;;-50
2021/11/27 04:01:14;;;;;;;1.80;1.70;;;;;;;18.13;50.52;97601.38;;;;-50
2021/11/27 04:04:14;;;;;;;1.66;1.56;;;;;;;18.12;50.50;97599.91;;;;-51
2021/11/27 04:07:14;;;;;;;1.70;1.60;;;;;;;18.10;50.53;97597.91;;;;-52
2021/11/27 04:10:15;;;;;;;1.78;1.65;;;;;;;18.11;50.54;97599.28;;;;-52
2021/11/27 04:13:14;;;;;;;1.87;1.77;;;;;;;18.10;50.50;97595.27;;;;-51
2021/11/27 04:16:14;;;;;;;1.73;1.60;;;;;;;18.09;50.56;97596.56;;;;-51
2021/11/27 04:19:14;;;;;;;1.59;1.49;;;;;;;18.09;50.58;97601.84;;;;-52
2021/11/27 04:22:14;;;;;;;1.52;1.42;;;;;;;18.07;50.52;97602.72;;;;-52
2021/11/27 04:25:14;;;;;;;1.65;1.55;;;;;;;18.07;50.60;97609.11;;;;-51
2021/11/27 04:28:14;;;;;;;1.60;1.50;;;;;;;18.06;50.65;97608.42;;;;-51
2021/11/27 04:31:17;;;;;;;1.60;1.50;;;;;;;18.05;50.66;97608.53;;;;-51
2021/11/27 04:34:14;;;;;;;1.67;1.57;;;;;;;18.04;50.62;97613.94;;;;-51
2021/11/27 04:37:15;;;;;;;1.68;1.58;;;;;;;18.04;50.59;97614.25;;;;-52
2021/11/27 04:40:14;;;;;;;1.55;1.45;;;;;;;18.03;50.67;97622.95;;;;-52
2021/11/27 04:43:14;;;;;;;1.59;1.49;;;;;;;18.02;50.64;97626.31;;;;-52
2021/11/27 04:46:14;;;;;;;1.57;1.47;;;;;;;18.02;50.65;97635.39;;;;-51
2021/11/27 04:49:14;;;;;;;1.53;1.43;;;;;;;18.01;50.63;97629.97;;;;-51
2021/11/27 04:52:14;;;;;;;1.50;1.40;;;;;;;18.01;50.66;97627.72;;;;-51
2021/11/27 04:55:15;;;;;;;1.50;1.40;;;;;;;18.00;50.62;97637.47;;;;-55
2021/11/27 04:58:14;;;;;;;1.39;1.29;;;;;;;17.98;50.64;97634.69;;;;-56
2021/11/27 05:01:15;;;;;;;1.67;1.57;;;;;;;17.97;50.63;97640.25;;;;-55
2021/11/27 05:04:14;;;;;;;1.49;1.39;;;;;;;17.96;50.68;97641.56;;;;-54
2021/11/27 05:07:14;;;;;;;1.59;1.49;;;;;;;17.96;50.68;97641.00;;;;-55
2021/11/27 05:10:14;;;;;;;1.39;1.29;;;;;;;17.94;50.66;97635.05;;;;-55
2021/11/27 05:13:14;;;;;;;1.55;1.45;;;;;;;17.95;50.63;97636.58;;;;-55
2021/11/27 05:16:14;;;;;;;1.57;1.47;;;;;;;17.95;50.61;97638.20;;;;-55
2021/11/27 05:19:14;;;;;;;1.57;1.47;;;;;;;17.93;50.68;97641.84;;;;-55
2021/11/27 05:22:14;;;;;;;1.61;1.51;;;;;;;17.92;50.64;97643.70;;;;-55
2021/11/27 05:25:14;;;;;;;1.57;1.47;;;;;;;17.92;50.68;97644.38;;;;-55
2021/11/27 05:28:14;;;;;;;1.60;1.50;;;;;;;17.91;50.59;97641.91;;;;-55
2021/11/27 05:31:16;;;;;;;1.51;1.41;;;;;;;17.91;50.60;97648.55;;;;-55
2021/11/27 05:34:34;;;;;;;1.49;1.39;;;;;;;17.89;50.66;97642.03;;;;-55
2021/11/27 05:37:14;;;;;;;1.51;1.41;;;;;;;17.90;50.63;97645.16;;;;-55
2021/11/27 05:40:14;;;;;;;1.40;1.30;;;;;;;17.89;50.60;97648.29;;;;-55
2021/11/27 05:43:14;;;;;;;1.55;1.45;;;;;;;17.88;50.61;97648.77;;;;-55
2021/11/27 05:46:14;;;;;;;1.40;1.30;;;;;;;17.88;50.64;97647.81;;;;-56
2021/11/27 05:49:14;;;;;;;6.03;1.70;;;;;;;17.87;50.26;97648.77;;;;-56
2021/11/27 05:52:14;;;;;;;1.29;1.19;;;;;;;17.77;48.76;97654.62;;;;-56
2021/11/27 05:55:14;;;;;;;1.99;1.12;;;;;;;17.71;48.15;97659.53;;;;-56
2021/11/27 05:58:14;;;;;;;1.69;1.10;;;;;;;17.65;47.93;97657.50;;;;-56
2021/11/27 06:01:14;;;;;;;1.50;1.10;;;;;;;17.61;47.53;97659.98;;;;-55
2021/11/27 06:04:14;;;;;;;1.01;1.01;;;;;;;17.55;47.23;97655.80;;;;-55
2021/11/27 06:07:14;;;;;;;1.24;1.15;;;;;;;17.48;46.98;97660.94;;;;-55
2021/11/27 06:10:14;;;;;;;1.10;1.00;;;;;;;17.47;47.36;97661.14;;;;-54
2021/11/27 06:13:14;;;;;;;2.59;1.17;;;;;;;17.51;47.59;97663.05;;;;-54
2021/11/27 06:16:14;;;;;;;1.68;1.10;;;;;;;17.53;48.29;97666.27;;;;-55
2021/11/27 06:19:14;;;;;;;1.16;1.06;;;;;;;17.56;48.40;97666.38;;;;-54
2021/11/27 06:22:16;;;;;;;1.35;1.07;;;;;;;17.58;48.58;97665.34;;;;-55
2021/11/27 06:25:14;;;;;;;1.13;1.05;;;;;;;17.60;48.70;97669.00;;;;-55
2021/11/27 06:28:14;;;;;;;1.18;1.13;;;;;;;17.61;48.81;97674.17;;;;-54
2021/11/27 06:31:14;;;;;;;3.63;1.10;;;;;;;17.62;48.94;97672.44;;;;-54
2021/11/27 06:34:16;;;;;;;1.20;1.00;;;;;;;17.62;49.03;97674.03;;;;-54
2021/11/27 06:37:14;;;;;;;0.90;0.81;;;;;;;17.64;49.14;97676.56;;;;-54
2021/11/27 06:40:14;;;;;;;1.25;1.15;;;;;;;17.67;49.20;97675.58;;;;-54
2021/11/27 06:43:14;;;;;;;0.98;0.96;;;;;;;17.70;49.37;97672.02;;;;-55
2021/11/27 06:46:14;;;;;;;0.97;0.94;;;;;;;17.72;49.49;97671.45;;;;-55
2021/11/27 06:49:14;;;;;;;0.90;0.90;;;;;;;17.74;49.61;97670.67;;;;-55
2021/11/27 06:52:14;;;;;;;1.29;0.95;;;;;;;17.78;49.62;97674.91;;;;-55
2021/11/27 06:55:14;;;;;;;0.91;0.91;;;;;;;17.80;49.68;97676.63;;;;-52
2021/11/27 06:58:14;;;;;;;1.08;0.98;;;;;;;17.82;49.66;97680.45;;;;-51
2021/11/27 07:01:14;;;;;;;1.13;1.10;;;;;;;17.84;49.79;97689.19;;;;-51
2021/11/27 07:04:17;;;;;;;1.06;0.95;;;;;;;17.86;49.82;97699.17;;;;-57
2021/11/27 07:07:14;;;;;;;0.89;0.89;;;;;;;17.87;49.84;97705.14;;;;-56
2021/11/27 07:10:14;;;;;;;1.08;0.92;;;;;;;17.88;49.88;97708.41;;;;-57
2021/11/27 07:13:14;;;;;;;1.10;0.99;;;;;;;17.88;49.88;97711.14;;;;-56
2021/11/27 07:16:14;;;;;;;1.07;1.00;;;;;;;17.91;49.91;97718.53;;;;-57
2021/11/27 07:19:14;;;;;;;1.00;0.90;;;;;;;17.91;50.01;97723.63;;;;-51
2021/11/27 07:22:14;;;;;;;1.05;1.00;;;;;;;17.91;49.98;97728.42;;;;-52
2021/11/27 07:25:14;;;;;;;0.89;0.89;;;;;;;17.92;49.97;97736.80;;;;-51
2021/11/27 07:28:15;;;;;;;0.90;0.90;;;;;;;17.93;49.93;97742.20;;;;-51
2021/11/27 07:31:14;;;;;;;1.04;0.99;;;;;;;17.94;50.01;97748.75;;;;-52
2021/11/27 07:34:14;;;;;;;1.01;1.00;;;;;;;17.95;50.04;97749.52;;;;-51
2021/11/27 07:37:14;;;;;;;1.00;1.00;;;;;;;17.94;49.94;97759.00;;;;-51
2021/11/27 07:40:14;;;;;;;1.69;1.00;;;;;;;17.95;50.01;97764.16;;;;-52
2021/11/27 07:43:14;;;;;;;1.02;0.95;;;;;;;17.96;49.99;97767.32;;;;-51
2021/11/27 07:46:16;;;;;;;0.81;0.81;;;;;;;17.95;49.96;97768.64;;;;-56
2021/11/27 07:49:14;;;;;;;0.85;0.85;;;;;;;17.96;50.10;97772.98;;;;-55
2021/11/27 07:52:16;;;;;;;1.09;0.99;;;;;;;17.95;50.08;97777.06;;;;-55
2021/11/27 07:55:14;;;;;;;0.91;0.91;;;;;;;17.95;49.98;97774.63;;;;-56
2021/11/27 07:58:14;;;;;;;0.90;0.90;;;;;;;17.94;50.11;97782.75;;;;-55
2021/11/27 08:01:14;;;;;;;0.86;0.86;;;;;;;17.94;50.03;97782.59;;;;-57
2021/11/27 08:04:14;;;;;;;0.83;0.83;;;;;;;17.94;50.05;97781.88;;;;-55
2021/11/27 08:07:14;;;;;;;0.84;0.84;;;;;;;17.93;50.11;97787.08;;;;-57
2021/11/27 08:10:14;;;;;;;0.99;0.99;;;;;;;17.93;49.99;97795.44;;;;-55
2021/11/27 08:13:14;;;;;;;0.85;0.85;;;;;;;17.93;50.05;97799.65;;;;-57
2021/11/27 08:16:14;;;;;;;1.16;0.78;;;;;;;17.93;50.06;97796.23;;;;-52
2021/11/27 08:19:14;;;;;;;0.76;0.76;;;;;;;17.92;49.97;97794.97;;;;-51
2021/11/27 08:22:14;;;;;;;0.86;0.86;;;;;;;17.93;50.03;97799.16;;;;-51
2021/11/27 08:25:14;;;;;;;1.15;1.02;;;;;;;17.92;49.99;97804.78;;;;-51
2021/11/27 08:28:14;;;;;;;0.90;0.90;;;;;;;17.92;50.04;97811.19;;;;-51
2021/11/27 08:31:14;;;;;;;0.94;0.94;;;;;;;17.92;49.98;97814.27;;;;-52
2021/11/27 08:34:14;;;;;;;0.99;0.99;;;;;;;17.91;49.95;97820.05;;;;-57
2021/11/27 08:37:14;;;;;;;1.07;0.97;;;;;;;17.91;49.97;97820.44;;;;-57
2021/11/27 08:40:14;;;;;;;1.12;1.02;;;;;;;17.90;49.98;97826.22;;;;-57
2021/11/27 08:43:14;;;;;;;0.80;0.80;;;;;;;17.90;50.05;97826.16;;;;-57
2021/11/27 08:46:14;;;;;;;0.83;0.83;;;;;;;17.89;50.00;97828.61;;;;-51
2021/11/27 08:49:14;;;;;;;1.07;0.98;;;;;;;17.89;50.00;97833.40;;;;-51
2021/11/27 08:52:14;;;;;;;0.93;0.93;;;;;;;17.88;50.01;97832.34;;;;-51
2021/11/27 08:55:14;;;;;;;0.82;0.82;;;;;;;17.87;50.01;97837.65;;;;-51
2021/11/27 08:58:14;;;;;;;0.97;0.90;;;;;;;17.87;50.00;97841.70;;;;-57
2021/11/27 09:01:14;;;;;;;0.85;0.85;;;;;;;17.86;50.02;97847.64;;;;-57
2021/11/27 09:04:14;;;;;;;0.71;0.71;;;;;;;17.86;50.07;97843.59;;;;-57
2021/11/27 09:07:14;;;;;;;0.82;0.82;;;;;;;17.86;50.05;97851.98;;;;-57
2021/11/27 09:10:14;;;;;;;0.92;0.92;;;;;;;17.85;50.06;97854.95;;;;-57
2021/11/27 09:13:14;;;;;;;0.97;0.97;;;;;;;17.85;50.01;97861.45;;;;-57
2021/11/27 09:16:14;;;;;;;1.23;1.06;;;;;;;17.83;50.05;97861.16;;;;-51
2021/11/27 09:19:14;;;;;;;0.90;0.90;;;;;;;17.84;50.03;97870.38;;;;-51
2021/11/27 09:22:14;;;;;;;0.81;0.81;;;;;;;17.83;50.04;97867.02;;;;-51
2021/11/27 09:25:14;;;;;;;0.91;0.91;;;;;;;17.83;50.04;97878.61;;;;-51
2021/11/27 09:28:14;;;;;;;0.87;0.85;;;;;;;17.82;50.05;97882.05;;;;-51
2021/11/27 09:31:14;;;;;;;0.77;0.77;;;;;;;17.81;50.06;97879.50;;;;-51
2021/11/27 09:34:14;;;;;;;0.75;0.75;;;;;;;17.81;50.04;97881.23;;;;-51
2021/11/27 09:37:16;;;;;;;0.89;0.89;;;;;;;17.80;50.10;97886.43;;;;-51
2021/11/27 09:40:14;;;;;;;0.82;0.82;;;;;;;17.79;50.02;97883.86;;;;-51
2021/11/27 09:43:14;;;;;;;0.94;0.90;;;;;;;17.78;50.06;97880.86;;;;-51
2021/11/27 09:46:14;;;;;;;0.80;0.80;;;;;;;17.78;50.06;97889.94;;;;-51
2021/11/27 09:49:18;;;;;;;0.71;0.71;;;;;;;17.77;50.10;97893.88;;;;-51
2021/11/27 09:52:14;;;;;;;0.93;0.93;;;;;;;17.77;50.10;97898.59;;;;-51
2021/11/27 09:55:16;;;;;;;0.91;0.91;;;;;;;17.75;50.08;97903.64;;;;-51
2021/11/27 09:58:14;;;;;;;0.87;0.87;;;;;;;17.75;50.11;97901.80;;;;-51
2021/11/27 10:01:14;;;;;;;1.15;1.04;;;;;;;17.74;49.62;97900.51;;;;-47
2021/11/27 10:04:14;;;;;;;2.39;0.98;;;;;;;17.76;50.11;97899.58;;;;-51
2021/11/27 10:07:15;;;;;;;1.00;0.89;;;;;;;17.79;50.24;97895.61;;;;-51
2021/11/27 10:10:15;;;;;;;1.88;1.04;;;;;;;17.82;50.43;97898.59;;;;-51
2021/11/27 10:13:14;;;;;;;0.78;0.78;;;;;;;17.85;50.54;97896.03;;;;-52
2021/11/27 10:16:14;;;;;;;1.57;0.91;;;;;;;17.91;50.59;97895.23;;;;-50
2021/11/27 10:19:14;;;;;;;0.90;0.79;;;;;;;17.94;50.78;97895.27;;;;-52
2021/11/27 10:22:14;;;;;;;0.82;0.82;;;;;;;18.00;50.88;97898.52;;;;-52
2021/11/27 10:25:14;;;;;;;0.79;0.79;;;;;;;18.05;51.10;97900.47;;;;-47
2021/11/27 10:28:14;;;;;;;1.82;0.89;;;;;;;18.11;50.92;97902.25;;;;-48
2021/11/27 10:31:14;;;;;;;0.93;0.87;;;;;;;18.16;51.04;97908.75;;;;-50
2021/11/27 10:34:14;;;;;;;0.78;0.78;;;;;;;18.23;50.97;97908.48;;;;-51
2021/11/27 10:37:14;;;;;;;0.96;0.90;;;;;;;18.31;51.05;97909.72;;;;-46
2021/11/27 10:40:14;;;;;;;1.05;0.89;;;;;;;18.35;51.00;97910.13;;;;-50
2021/11/27 10:43:14;;;;;;;1.10;1.02;;;;;;;18.40;50.97;97915.52;;;;-53
2021/11/27 10:46:14;;;;;;;0.80;0.80;;;;;;;18.44;50.89;97919.27;;;;-61
2021/11/27 10:49:14;;;;;;;1.15;0.96;;;;;;;18.47;51.29;97921.69;;;;-55
2021/11/27 10:52:14;;;;;;;1.09;1.01;;;;;;;18.53;51.06;97922.66;;;;-55
2021/11/27 10:55:14;;;;;;;1.86;0.93;;;;;;;18.55;50.84;97932.08;;;;-51
2021/11/27 10:58:14;;;;;;;1.13;0.97;;;;;;;18.58;51.16;97931.25;;;;-54
2021/11/27 11:01:14;;;;;;;1.55;0.90;;;;;;;18.63;51.11;97933.19;;;;-59
2021/11/27 11:04:14;;;;;;;0.99;0.90;;;;;;;18.68;51.12;97936.29;;;;-58
2021/11/27 11:07:16;;;;;;;0.98;0.98;;;;;;;18.71;51.07;97941.23;;;;-57
2021/11/27 11:10:18;;;;;;;1.70;0.85;;;;;;;18.73;50.88;97944.48;;;;-56
2021/11/27 11:13:14;;;;;;;0.94;0.82;;;;;;;18.77;50.95;97947.21;;;;-53
2021/11/27 11:16:14;;;;;;;5.24;0.95;;;;;;;18.83;51.02;97949.83;;;;-58
2021/11/27 11:19:14;;;;;;;1.16;0.80;;;;;;;18.84;50.80;97951.25;;;;-54
2021/11/27 11:22:16;;;;;;;2.47;0.99;;;;;;;18.87;50.74;97953.27;;;;-57
2021/11/27 11:25:14;;;;;;;2.28;1.00;;;;;;;18.87;50.41;97955.31;;;;-50
2021/11/27 11:28:15;;;;;;;0.82;0.82;;;;;;;18.88;50.12;97963.38;;;;-50
2021/11/27 11:31:14;;;;;;;0.84;0.84;;;;;;;18.88;50.09;97964.76;;;;-50
2021/11/27 11:34:14;;;;;;;1.23;0.89;;;;;;;18.92;50.57;97966.48;;;;-49
2021/11/27 11:37:14;;;;;;;2.06;1.07;;;;;;;18.93;49.81;97969.63;;;;-50
2021/11/27 11:40:14;;;;;;;1.13;1.04;;;;;;;18.93;49.47;97969.96;;;;-50
2021/11/27 11:43:14;;;;;;;1.26;1.04;;;;;;;18.94;49.00;97965.92;;;;-51
2021/11/27 11:46:14;;;;;;;2.01;1.09;;;;;;;18.96;49.14;97968.95;;;;-49
2021/11/27 11:49:14;;;;;;;1.36;1.13;;;;;;;18.97;48.52;97971.03;;;;-49
2021/11/27 11:52:14;;;;;;;1.53;1.13;;;;;;;19.00;48.97;97969.42;;;;-50
2021/11/27 11:55:14;;;;;;;1.68;1.09;;;;;;;19.02;48.29;97977.96;;;;-51
2021/11/27 11:58:14;;;;;;;2.85;1.19;;;;;;;19.03;48.29;97986.13;;;;-51
2021/11/27 12:01:14;;;;;;;1.25;1.15;;;;;;;19.05;48.30;97987.68;;;;-52
2021/11/27 12:04:14;;;;;;;2.04;1.23;;;;;;;19.08;48.32;97991.63;;;;-52
2021/11/27 12:07:14;;;;;;;1.49;1.20;;;;;;;19.08;48.28;97992.52;;;;-53
2021/11/27 12:10:14;;;;;;;1.29;1.19;;;;;;;19.13;48.56;97994.08;;;;-52
2021/11/27 12:13:14;;;;;;;2.71;1.10;;;;;;;19.18;49.09;97994.48;;;;-52
2021/11/27 12:16:15;;;;;;;1.10;1.00;;;;;;;19.23;49.28;97991.66;;;;-53
2021/11/27 12:19:14;;;;;;;1.67;1.01;;;;;;;19.27;49.40;97993.52;;;;-54
2021/11/27 12:22:14;;;;;;;1.25;1.15;;;;;;;19.33;49.50;97994.67;;;;-49
2021/11/27 12:25:14;;;;;;;1.29;1.11;;;;;;;19.36;49.50;97998.46;;;;-49
2021/11/27 12:28:14;;;;;;;2.47;1.17;;;;;;;19.39;49.52;97999.67;;;;-49
2021/11/27 12:31:14;;;;;;;0.96;0.90;;;;;;;19.43;49.59;98001.42;;;;-48
2021/11/27 12:34:14;;;;;;;1.43;1.03;;;;;;;19.45;49.69;98001.88;;;;-48
2021/11/27 12:37:14;;;;;;;2.01;1.11;;;;;;;19.49;49.62;97999.02;;;;-50
2021/11/27 12:40:14;;;;;;;1.19;1.07;;;;;;;19.48;49.57;98005.05;;;;-50
2021/11/27 12:43:14;;;;;;;1.20;1.10;;;;;;;19.47;49.54;98011.42;;;;-57
2021/11/27 12:46:14;;;;;;;1.58;1.09;;;;;;;19.46;49.40;98015.27;;;;-52
2021/11/27 12:49:14;;;;;;;2.09;1.22;;;;;;;19.46;49.04;98021.28;;;;-56
2021/11/27 12:52:14;;;;;;;3.45;1.33;;;;;;;19.44;49.06;98026.45;;;;-57
2021/11/27 12:55:15;;;;;;;3.26;1.27;;;;;;;19.44;49.11;98029.13;;;;-60
2021/11/27 12:58:14;;;;;;;1.77;1.15;;;;;;;19.43;49.17;98027.13;;;;-50
2021/11/27 13:01:14;;;;;;;2.38;1.23;;;;;;;19.43;49.26;98036.18;;;;-58
2021/11/27 13:04:18;;;;;;;1.15;1.10;;;;;;;19.42;49.27;98036.69;;;;-58
2021/11/27 13:07:14;;;;;;;1.06;0.96;;;;;;;19.41;49.34;98041.02;;;;-59
2021/11/27 13:10:14;;;;;;;0.82;0.82;;;;;;;19.40;49.36;98042.84;;;;-51
2021/11/27 13:13:17;;;;;;;1.47;1.05;;;;;;;19.38;49.33;98043.88;;;;-59
2021/11/27 13:16:14;;;;;;;1.03;1.02;;;;;;;19.38;49.25;98053.30;;;;-57
2021/11/27 13:19:14;;;;;;;1.07;1.00;;;;;;;19.37;49.31;98054.45;;;;-51
2021/11/27 13:22:14;;;;;;;2.39;1.00;;;;;;;19.35;49.34;98059.62;;;;-59
2021/11/27 13:25:14;;;;;;;1.10;1.00;;;;;;;19.34;49.34;98068.27;;;;-57
2021/11/27 13:28:14;;;;;;;2.72;1.01;;;;;;;19.33;49.29;98070.03;;;;-57
2021/11/27 13:31:14;;;;;;;1.55;1.04;;;;;;;19.32;49.37;98074.11;;;;-56
2021/11/27 13:34:14;;;;;;;1.11;1.00;;;;;;;19.29;49.30;98077.38;;;;-51
2021/11/27 13:37:14;;;;;;;1.21;1.10;;;;;;;19.27;49.28;98077.48;;;;-51
2021/11/27 13:40:14;;;;;;;1.75;1.12;;;;;;;19.26;49.25;98082.66;;;;-50
2021/11/27 13:43:14;;;;;;;2.22;1.11;;;;;;;19.24;49.33;98085.57;;;;-50
2021/11/27 13:46:14;;;;;;;1.15;1.10;;;;;;;19.22;49.33;98092.11;;;;-58
2021/11/27 13:49:14;;;;;;;1.27;1.05;;;;;;;19.21;49.37;98099.69;;;;-58
2021/11/27 13:52:14;;;;;;;0.85;0.85;;;;;;;19.19;49.30;98103.38;;;;-58
2021/11/27 13:55:14;;;;;;;1.16;1.06;;;;;;;19.18;49.25;98104.89;;;;-50
2021/11/27 13:58:14;;;;;;;1.33;1.12;;;;;;;19.16;49.34;98110.70;;;;-58
2021/11/27 14:01:14;;;;;;;1.19;1.04;;;;;;;19.15;49.26;98113.02;;;;-57
2021/11/27 14:04:14;;;;;;;1.26;1.13;;;;;;;19.13;49.34;98111.71;;;;-57
2021/11/27 14:07:14;;;;;;;1.01;1.00;;;;;;;19.12;49.40;98113.70;;;;-57
2021/11/27 14:10:14;;;;;;;0.85;0.85;;;;;;;19.10;49.36;98117.55;;;;-57
2021/11/27 14:13:14;;;;;;;1.37;1.16;;;;;;;19.08;49.30;98122.38;;;;-57
2021/11/27 14:16:14;;;;;;;1.05;1.00;;;;;;;19.06;49.34;98121.75;;;;-57
2021/11/27 14:19:15;;;;;;;0.94;0.94;;;;;;;19.05;49.30;98121.99;;;;-57
2021/11/27 14:22:15;;;;;;;1.63;1.03;;;;;;;19.03;49.33;98123.06;;;;-57
2021/11/27 14:25:14;;;;;;;1.14;1.00;;;;;;;19.01;49.36;98126.59;;;;-55
2021/11/27 14:28:14;;;;;;;1.26;1.06;;;;;;;18.99;49.46;98130.32;;;;-52
2021/11/27 14:31:14;;;;;;;1.26;1.10;;;;;;;18.97;49.51;98129.08;;;;-52
2021/11/27 14:34:18;;;;;;;1.07;1.03;;;;;;;18.96;49.55;98130.39;;;;-52
2021/11/27 14:37:15;;;;;;;1.07;1.05;;;;;;;18.94;49.51;98133.28;;;;-52
2021/11/27 14:40:14;;;;;;;0.96;0.96;;;;;;;18.92;49.51;98137.21;;;;-52
2021/11/27 14:43:14;;;;;;;1.02;1.02;;;;;;;18.90;49.49;98141.58;;;;-52
2021/11/27 14:46:14;;;;;;;1.20;1.10;;;;;;;18.88;49.60;98141.39;;;;-52
2021/11/27 14:49:14;;;;;;;1.05;1.05;;;;;;;18.87;49.64;98147.44;;;;-57
2021/11/27 14:52:15;;;;;;;1.20;1.10;;;;;;;18.85;49.56;98152.91;;;;-57
2021/11/27 14:55:15;;;;;;;1.21;1.11;;;;;;;18.83;49.59;98156.38;;;;-59
2021/11/27 14:58:14;;;;;;;1.32;0.93;;;;;;;18.82;49.57;98156.91;;;;-58
2021/11/27 15:01:14;;;;;;;1.09;1.00;;;;;;;18.81;49.66;98159.45;;;;-58
2021/11/27 15:04:14;;;;;;;0.90;0.90;;;;;;;18.79;49.63;98157.30;;;;-59
2021/11/27 15:07:14;;;;;;;1.11;1.05;;;;;;;18.77;49.59;98158.56;;;;-49
2021/11/27 15:10:14;;;;;;;2.11;1.20;;;;;;;18.75;49.56;98154.70;;;;-52
2021/11/27 15:13:14;;;;;;;1.34;1.01;;;;;;;18.74;49.47;98159.20;;;;-59
2021/11/27 15:16:14;;;;;;;1.21;1.10;;;;;;;18.73;49.56;98157.47;;;;-59
2021/11/27 15:19:14;;;;;;;1.35;1.04;;;;;;;18.70;49.64;98159.40;;;;-59
2021/11/27 15:22:14;;;;;;;1.28;1.03;;;;;;;18.69;49.62;98157.33;;;;-50
2021/11/27 15:25:14;;;;;;;1.32;1.22;;;;;;;18.67;49.70;98158.01;;;;-50
2021/11/27 15:28:14;;;;;;;1.15;1.07;;;;;;;18.65;49.62;98153.36;;;;-50
2021/11/27 15:31:14;;;;;;;1.35;1.20;;;;;;;18.64;49.71;98152.61;;;;-50
2021/11/27 15:34:14;;;;;;;1.20;1.10;;;;;;;18.62;49.67;98147.13;;;;-57
2021/11/27 15:37:14;;;;;;;1.71;1.11;;;;;;;18.61;49.70;98154.70;;;;-55
2021/11/27 15:40:14;;;;;;;1.66;1.00;;;;;;;18.59;49.67;98160.59;;;;-50
2021/11/27 15:43:14;;;;;;;1.37;1.10;;;;;;;18.57;49.71;98168.51;;;;-50
2021/11/27 15:46:14;;;;;;;1.17;1.00;;;;;;;18.56;49.70;98177.95;;;;-50
2021/11/27 15:49:14;;;;;;;1.49;1.21;;;;;;;18.55;49.75;98180.25;;;;-50
2021/11/27 15:52:14;;;;;;;1.18;1.10;;;;;;;18.53;49.74;98183.20;;;;-50
2021/11/27 15:55:14;;;;;;;1.01;1.01;;;;;;;18.52;49.70;98193.63;;;;-50
2021/11/27 15:58:15;;;;;;;1.20;1.10;;;;;;;18.51;49.79;98200.88;;;;-57
2021/11/27 16:01:14;;;;;;;1.27;1.19;;;;;;;18.49;49.82;98204.66;;;;-55
2021/11/27 16:04:14;;;;;;;1.12;1.07;;;;;;;18.47;49.82;98210.79;;;;-52
2021/11/27 16:07:14;;;;;;;1.21;1.10;;;;;;;18.46;49.78;98217.77;;;;-52
2021/11/27 16:10:14;;;;;;;1.18;1.10;;;;;;;18.45;49.83;98226.80;;;;-52
2021/11/27 16:13:14;;;;;;;1.17;1.13;;;;;;;18.44;49.84;98227.55;;;;-52
2021/11/27 16:16:14;;;;;;;1.32;1.22;;;;;;;18.43;49.79;98228.88;;;;-52
2021/11/27 16:19:14;;;;;;;1.01;1.01;;;;;;;18.40;49.81;98236.09;;;;-52
2021/11/27 16:22:14;;;;;;;1.21;1.11;;;;;;;18.39;49.87;98244.23;;;;-50
2021/11/27 16:25:18;;;;;;;1.83;1.09;;;;;;;18.38;49.88;98245.95;;;;-50
2021/11/27 16:28:14;;;;;;;1.32;1.22;;;;;;;18.36;49.85;98249.33;;;;-50
2021/11/27 16:31:14;;;;;;;1.28;1.18;;;;;;;18.35;49.84;98250.89;;;;-50
2021/11/27 16:34:16;;;;;;;1.43;1.30;;;;;;;18.34;49.78;98250.44;;;;-50
2021/11/27 16:37:14;;;;;;;1.25;1.15;;;;;;;18.31;49.82;98251.48;;;;-50
2021/11/27 16:40:14;;;;;;;1.38;1.28;;;;;;;18.31;49.87;98251.80;;;;-50
2021/11/27 16:43:14;;;;;;;1.63;1.30;;;;;;;18.30;49.82;98255.63;;;;-52
2021/11/27 16:46:16;;;;;;;1.21;1.10;;;;;;;18.28;49.77;98255.70;;;;-52
2021/11/27 16:49:15;;;;;;;1.37;1.27;;;;;;;18.27;49.83;98255.56;;;;-52
2021/11/27 16:52:14;;;;;;;1.32;1.22;;;;;;;18.24;49.83;98257.16;;;;-48
2021/11/27 16:55:15;;;;;;;2.75;1.49;;;;;;;18.25;49.10;98268.74;;;;-50